Virtual Norwegian is not affiliated with Norwegian Air Shuttle in any way.
If you are looking for the real "Norwegian", or you wish to book Norwegian flights, please visit Norwegian.com


We use cookies to ensure you get the best experience on our website.   ACCEPT

KTPA - TPA - Tampa (Tampa Intl)

General Info Alternate Airport
ICAO: KTPA Elevation: 26 ft ICAO: KFLL
IATA: TPA Country: United States IATA: FLL
City: Tampa Charts: Log in to view charts City: Fort Lauderdale
Name: Tampa Intl Hub: No Name Fort Lauderdale Hollywood Intl
General Info
ICAO: KTPA
IATA: TPA
City: Tampa
Name: Tampa Intl
Elevation: 26 ft
Country: United States
Charts: Log in to view charts
Hub: No
 
Alternate Airport
ICAO: KFLL
IATA: FLL
City: Fort Lauderdale
Name: Fort Lauderdale Hollywood Intl

Weather
210353Z 04005KT 10SM CLR 24/18 A3014 RMK AO2 SLP206 T02440178
Weather
210353Z 04005KT 10SM CLR 24/18 A3014 RMK AO2 SLP206 T02440178

NOTAMs
NOTAMs currently unavailable.
NOTAMs
NOTAMs currently unavailable

Route map
Airport
Airport (hub)